createdAt,value
2016-05-15T00:00:43.171Z,27.3
2016-05-15T00:01:43.221Z,27.78
2016-05-15T00:02:43.254Z,27.3
2016-05-15T00:03:43.274Z,27.39
2016-05-15T00:04:43.370Z,28.36
2016-05-15T00:05:43.404Z,27.39
2016-05-15T00:06:43.469Z,27.49
2016-05-15T00:07:43.518Z,28.07
2016-05-15T00:08:43.567Z,28.36
2016-05-15T00:09:43.617Z,29.03
2016-05-15T00:10:43.683Z,27.49
2016-05-15T00:11:43.732Z,27.39
2016-05-15T00:12:43.766Z,27.59
2016-05-15T00:13:43.847Z,29.13
2016-05-15T00:14:43.896Z,28.16
2016-05-15T00:15:43.946Z,28.84
2016-05-15T00:16:43.995Z,28.74
2016-05-15T00:17:44.061Z,27.97
2016-05-15T00:18:44.314Z,27.49
2016-05-15T00:19:44.128Z,27.11
2016-05-15T00:20:44.178Z,27.3
2016-05-15T00:21:44.244Z,27.78
2016-05-15T00:22:44.292Z,27.3
2016-05-15T00:23:44.343Z,27.59
2016-05-15T00:24:44.408Z,27.59
2016-05-15T00:25:44.442Z,28.55
2016-05-15T00:26:44.491Z,27.69
2016-05-15T00:27:44.572Z,28.26
2016-05-15T00:28:44.605Z,27.87
2016-05-15T00:29:44.655Z,27.49
2016-05-15T00:30:44.705Z,27.59
2016-05-15T00:31:44.755Z,27.39
2016-05-15T00:32:44.820Z,27.97
2016-05-15T00:33:45.244Z,28.15
2016-05-15T00:34:44.747Z,27.78
2016-05-15T00:35:44.968Z,28.07
2016-05-15T00:36:45.018Z,27.58
2016-05-15T00:37:45.083Z,27.48
2016-05-15T00:38:45.117Z,27.67
2016-05-15T00:39:45.182Z,27.86
2016-05-15T00:40:45.060Z,27.78
2016-05-15T00:41:45.281Z,27.49
2016-05-15T00:42:45.331Z,27.49
2016-05-15T00:43:45.381Z,27.09
2016-05-15T00:44:45.431Z,27.86
2016-05-15T00:45:45.479Z,27.58
2016-05-15T00:46:45.529Z,27.58
2016-05-15T00:47:45.579Z,27.76
2016-05-15T00:48:45.628Z,27.38
2016-05-15T00:49:45.523Z,27.58
2016-05-15T00:50:45.587Z,27.76
2016-05-15T00:51:45.793Z,27.48
2016-05-15T00:52:45.842Z,27.58
2016-05-15T00:53:45.908Z,27.86
2016-05-15T00:54:45.957Z,27.48
2016-05-15T00:55:45.835Z,27.76
2016-05-15T00:56:45.884Z,28.63
2016-05-15T00:57:46.106Z,28.44
2016-05-15T00:58:45.999Z,28.63
2016-05-15T00:59:46.221Z,27.86
2016-05-15T01:00:46.255Z,27.76
2016-05-15T01:01:46.304Z,27.86
2016-05-15T01:02:46.354Z,27.76
2016-05-15T01:03:46.419Z,28.92
2016-05-15T01:04:46.469Z,28.15
2016-05-15T01:05:46.518Z,28.53
2016-05-15T01:06:46.568Z,29.4
2016-05-15T01:07:46.618Z,28.63
2016-05-15T01:08:46.682Z,28.34
2016-05-15T01:09:46.716Z,28.53
2016-05-15T01:10:46.766Z,28.63
2016-05-15T01:11:46.816Z,28.44
2016-05-15T01:12:46.724Z,28.63
2016-05-15T01:13:46.915Z,28.05
2016-05-15T01:14:46.979Z,28.25
2016-05-15T01:15:47.029Z,29.79
2016-05-15T01:16:47.079Z,28.34
2016-05-15T01:17:47.144Z,28.72
2016-05-15T01:18:47.209Z,28.63
2016-05-15T01:19:47.243Z,28.44
2016-05-15T01:20:47.292Z,28.82
2016-05-15T01:21:47.327Z,28.82
2016-05-15T01:22:47.236Z,29.02
2016-05-15T01:23:47.442Z,28.53
2016-05-15T01:24:47.491Z,29.3
2016-05-15T01:25:47.556Z,28.44
2016-05-15T01:26:47.606Z,28.34
2016-05-15T01:27:47.655Z,29.49
2016-05-15T01:28:47.705Z,28.05
2016-05-15T01:29:47.770Z,28.34
2016-05-15T01:30:47.804Z,28.34
2016-05-15T01:31:47.853Z,28.63
2016-05-15T01:32:47.919Z,29.11
2016-05-15T01:33:47.984Z,28.72
2016-05-15T01:34:48.018Z,27.86
2016-05-15T01:35:48.068Z,27.86
2016-05-15T01:36:48.117Z,28.34
2016-05-15T01:37:47.994Z,28.92
2016-05-15T01:38:48.216Z,29.4
2016-05-15T01:39:48.266Z,28.63
2016-05-15T01:40:48.174Z,28.53
2016-05-15T01:41:48.209Z,29.4
2016-05-15T01:42:48.429Z,29.11
2016-05-15T01:43:48.479Z,28.72
2016-05-15T01:44:48.529Z,29.59
2016-05-15T01:45:48.578Z,29.79
2016-05-15T01:46:48.628Z,28.63
2016-05-15T01:47:48.678Z,29.49
2016-05-15T01:48:48.587Z,29.97
2016-05-15T01:49:48.777Z,29.49
2016-05-15T01:50:48.826Z,29.69
2016-05-15T01:51:48.720Z,30.07
2016-05-15T01:52:48.941Z,29.88
2016-05-15T01:53:48.992Z,28.44
2016-05-15T01:54:48.884Z,29.49
2016-05-15T01:55:49.090Z,29.11
2016-05-15T01:56:48.983Z,29.88
2016-05-15T01:57:49.205Z,28.53
2016-05-15T01:58:49.255Z,28.63
2016-05-15T01:59:49.303Z,28.53
2016-05-15T02:00:49.338Z,29.49
2016-05-15T02:01:49.403Z,29.4
2016-05-15T02:02:49.453Z,28.72
2016-05-15T02:03:49.502Z,28.44
2016-05-15T02:04:49.552Z,30.17
2016-05-15T02:05:49.616Z,29.97
2016-05-15T02:06:49.651Z,30.36
2016-05-15T02:07:49.700Z,28.72
2016-05-15T02:08:49.765Z,29.59
2016-05-15T02:09:49.800Z,29.3
2016-05-15T02:10:49.865Z,29.97
2016-05-15T02:11:49.930Z,30.26
2016-05-15T02:12:49.963Z,29.02
2016-05-15T02:13:50.014Z,28.92
2016-05-15T02:14:50.063Z,29.3
2016-05-15T02:15:50.112Z,28.53
2016-05-15T02:16:50.179Z,28.72
2016-05-15T02:17:50.212Z,28.44
2016-05-15T02:18:50.417Z,30.07
2016-05-15T02:19:50.343Z,29.4
2016-05-15T02:20:50.376Z,29.69
2016-05-15T02:21:50.426Z,28.63
2016-05-15T02:22:50.490Z,28.53
2016-05-15T02:23:50.540Z,28.53
2016-05-15T02:24:50.575Z,28.53
2016-05-15T02:25:50.639Z,28.72
2016-05-15T02:26:50.673Z,30.55
2016-05-15T02:27:50.739Z,29.69
2016-05-15T02:28:50.789Z,30.17
2016-05-15T02:29:50.666Z,29.97
2016-05-15T02:30:50.872Z,28.72
2016-05-15T02:31:50.936Z,29.11
2016-05-15T02:32:50.987Z,29.97
2016-05-15T02:33:51.036Z,30.26
2016-05-15T02:34:51.085Z,29.79
2016-05-15T02:35:51.135Z,29.97
2016-05-15T02:36:51.185Z,29.3
2016-05-15T02:37:51.235Z,28.44
2016-05-15T02:38:51.283Z,28.63
2016-05-15T02:39:51.333Z,28.63
2016-05-15T02:40:51.383Z,28.53
2016-05-15T02:41:51.432Z,29.3
2016-05-15T02:42:51.498Z,29.4
2016-05-15T02:43:51.563Z,28.63
2016-05-15T02:44:51.597Z,29.3
2016-05-15T02:45:51.662Z,29.69
2016-05-15T02:46:51.712Z,30.07
2016-05-15T02:47:51.761Z,30.26
2016-05-15T02:48:51.810Z,29.69
2016-05-15T02:49:51.876Z,29.69
2016-05-15T02:50:51.894Z,30.26
2016-05-15T02:51:51.944Z,29.4
2016-05-15T02:52:52.009Z,29.21
2016-05-15T02:53:52.058Z,29.21
2016-05-15T02:54:52.108Z,30.46
2016-05-15T02:55:52.158Z,29.49
2016-05-15T02:56:52.223Z,28.82
2016-05-15T02:57:52.100Z,29.38
2016-05-15T02:58:52.323Z,29.67
2016-05-15T02:59:52.372Z,29.38
2016-05-15T03:00:52.421Z,29.77
2016-05-15T03:01:52.470Z,29.88
2016-05-15T03:02:52.536Z,29.19
2016-05-15T03:03:52.413Z,29.79
2016-05-15T03:04:52.619Z,30.44
2016-05-15T03:05:52.669Z,29.58
2016-05-15T03:06:52.563Z,30.17
2016-05-15T03:07:52.783Z,29.86
2016-05-15T03:08:52.849Z,30.25
2016-05-15T03:09:52.883Z,29.67
2016-05-15T03:10:52.932Z,29.59
2016-05-15T03:11:52.982Z,29.58
2016-05-15T03:12:53.032Z,29.1
2016-05-15T03:13:53.082Z,28.91
2016-05-15T03:14:53.146Z,29.58
2016-05-15T03:15:53.024Z,29.19
2016-05-15T03:16:53.246Z,29.86
2016-05-15T03:17:53.279Z,30.25
2016-05-15T03:18:53.188Z,30.25
2016-05-15T03:19:53.393Z,30.44
2016-05-15T03:20:53.444Z,29.67
2016-05-15T03:21:53.493Z,29.48
2016-05-15T03:22:53.386Z,29.86
2016-05-15T03:23:53.609Z,29.77
2016-05-15T03:24:53.657Z,29.86
2016-05-15T03:25:53.722Z,29.77
2016-05-15T03:26:53.757Z,30.15
2016-05-15T03:27:53.650Z,29.48
2016-05-15T03:28:53.856Z,29.28
2016-05-15T03:29:53.889Z,29
2016-05-15T03:30:53.798Z,29.19
2016-05-15T03:31:54.005Z,29.1
2016-05-15T03:32:54.053Z,29.48
2016-05-15T03:33:54.119Z,29.58
2016-05-15T03:34:54.184Z,29.48
2016-05-15T03:35:54.219Z,29.38
2016-05-15T03:36:54.268Z,30.35
2016-05-15T03:37:54.317Z,30.35
2016-05-15T03:38:54.367Z,29.58
2016-05-15T03:39:54.260Z,29.19
2016-05-15T03:40:54.466Z,29.77
2016-05-15T03:41:54.516Z,30.05
2016-05-15T03:42:54.566Z,29.67
2016-05-15T03:43:54.615Z,29.96
2016-05-15T03:44:54.679Z,30.35
2016-05-15T03:45:54.730Z,29.86
2016-05-15T03:46:54.607Z,30.25
2016-05-15T03:47:54.828Z,29.86
2016-05-15T03:48:54.894Z,29.77
2016-05-15T03:49:54.929Z,30.44
2016-05-15T03:50:54.977Z,29.96
2016-05-15T03:51:55.026Z,29.1
2016-05-15T03:52:54.921Z,29.48
2016-05-15T03:53:55.142Z,29.19
2016-05-15T03:54:55.191Z,29.96
2016-05-15T03:55:55.085Z,29.1
2016-05-15T03:56:55.290Z,29.38
2016-05-15T03:57:55.340Z,29.86
2016-05-15T03:58:55.389Z,29.67
2016-05-15T03:59:55.455Z,29.67
2016-05-15T04:00:55.489Z,29.96
2016-05-15T04:01:55.538Z,29.38
2016-05-15T04:02:55.603Z,29.38
2016-05-15T04:03:55.637Z,29.77
2016-05-15T04:04:55.687Z,29.28
2016-05-15T04:05:55.752Z,30.15
2016-05-15T04:06:55.786Z,30.63
2016-05-15T04:07:55.852Z,30.25
2016-05-15T04:08:55.900Z,30.25
2016-05-15T04:09:55.966Z,29.96
2016-05-15T04:10:56.016Z,29.28
2016-05-15T04:11:56.066Z,29.38
2016-05-15T04:12:56.099Z,29.86
2016-05-15T04:13:56.163Z,30.44
2016-05-15T04:14:56.058Z,30.25
2016-05-15T04:15:56.107Z,29.48
2016-05-15T04:16:56.312Z,29.1
2016-05-15T04:17:56.363Z,29.86
2016-05-15T04:18:56.412Z,30.05
2016-05-15T04:19:56.462Z,29.77
2016-05-15T04:20:56.512Z,30.15
2016-05-15T04:21:56.561Z,29.28
2016-05-15T04:22:56.626Z,29.48
2016-05-15T04:23:56.675Z,30.15
2016-05-15T04:24:56.726Z,30.44
2016-05-15T04:25:56.775Z,30.92
2016-05-15T04:26:56.824Z,29.58
2016-05-15T04:27:56.858Z,30.35
2016-05-15T04:28:56.908Z,30.15
2016-05-15T04:29:56.973Z,30.35
2016-05-15T04:30:56.866Z,30.44
2016-05-15T04:31:57.072Z,30.63
2016-05-15T04:32:57.137Z,29.77
2016-05-15T04:33:57.015Z,29.86
2016-05-15T04:34:57.236Z,29.86
2016-05-15T04:35:57.286Z,29.75
2016-05-15T04:36:57.336Z,29.58
2016-05-15T04:37:57.385Z,29.86
2016-05-15T04:38:57.435Z,29.37
2016-05-15T04:39:57.531Z,29.94
2016-05-15T04:40:57.533Z,29.85
2016-05-15T04:41:57.583Z,29.77
2016-05-15T04:42:57.633Z,29.48
2016-05-15T04:43:57.682Z,30.25
2016-05-15T04:44:57.747Z,29.48
2016-05-15T04:45:57.781Z,29.75
2016-05-15T04:46:57.847Z,29.66
2016-05-15T04:47:57.896Z,29.37
2016-05-15T04:48:57.946Z,30.71
2016-05-15T04:49:57.996Z,30.04
2016-05-15T04:50:58.045Z,29.66
2016-05-15T04:51:58.095Z,30.43
2016-05-15T04:52:58.144Z,29.85
2016-05-15T04:53:58.193Z,29.66
2016-05-15T04:54:58.243Z,29.47
2016-05-15T04:55:58.293Z,29.66
2016-05-15T04:56:58.359Z,29.47
2016-05-15T04:57:58.392Z,29.56
2016-05-15T04:58:58.457Z,30.43
2016-05-15T04:59:58.506Z,29.37
2016-05-15T05:00:58.556Z,29.66
2016-05-15T05:01:58.450Z,29.85
2016-05-15T05:02:58.655Z,29.66
2016-05-15T05:03:58.721Z,30.33
2016-05-15T05:04:58.755Z,29.37
2016-05-15T05:05:58.819Z,29.75
2016-05-15T05:06:58.870Z,29.56
2016-05-15T05:07:58.903Z,29.66
2016-05-15T05:08:58.952Z,30.04
2016-05-15T05:09:59.034Z,29.94
2016-05-15T05:10:59.067Z,29.66
2016-05-15T05:11:59.117Z,30.33
2016-05-15T05:12:59.166Z,30.43
2016-05-15T05:13:59.216Z,30.33
2016-05-15T05:14:59.266Z,30.04
2016-05-15T05:15:59.330Z,29.75
2016-05-15T05:16:59.365Z,29.27
2016-05-15T05:17:59.274Z,29.85
2016-05-15T05:18:59.480Z,30.62
2016-05-15T05:19:59.529Z,30.14
2016-05-15T05:20:59.594Z,30.52
2016-05-15T05:21:59.629Z,29.75
2016-05-15T05:22:59.678Z,29.85
2016-05-15T05:23:59.571Z,29.94
2016-05-15T05:24:59.776Z,30.71
2016-05-15T05:25:59.827Z,30.71
2016-05-15T05:26:59.876Z,30.33
2016-05-15T05:27:59.925Z,30.43
2016-05-15T05:28:59.991Z,30.04
2016-05-15T05:30:00.040Z,29.94
2016-05-15T05:31:00.089Z,30.43
2016-05-15T05:32:00.139Z,30.23
2016-05-15T05:33:00.190Z,31
2016-05-15T05:34:00.254Z,30.33
2016-05-15T05:35:00.288Z,30.43
2016-05-15T05:36:00.370Z,30.04
2016-05-15T05:37:00.387Z,30.33
2016-05-15T05:38:00.436Z,29.85
2016-05-15T05:39:00.486Z,30.43
2016-05-15T05:40:00.567Z,30.04
2016-05-15T05:41:00.602Z,29.66
2016-05-15T05:42:00.650Z,30.14
2016-05-15T05:43:00.700Z,30.62
2016-05-15T05:44:00.750Z,31
2016-05-15T05:45:00.799Z,30.33
2016-05-15T05:46:00.849Z,30.43
2016-05-15T05:47:00.743Z,30.71
2016-05-15T05:48:00.949Z,31.48
2016-05-15T05:49:00.841Z,30.23
2016-05-15T05:50:01.047Z,30.81
2016-05-15T05:51:01.097Z,30.23
2016-05-15T05:52:01.162Z,30.04
2016-05-15T05:53:01.212Z,30.81
2016-05-15T05:54:01.246Z,30.23
2016-05-15T05:55:01.310Z,30.62
2016-05-15T05:56:01.360Z,30.23
2016-05-15T05:57:01.410Z,30.23
2016-05-15T05:58:01.475Z,30.9
2016-05-15T05:59:01.525Z,31.2
2016-05-15T06:00:01.558Z,31.48
2016-05-15T06:01:01.624Z,30.43
2016-05-15T06:02:01.673Z,31
2016-05-15T06:03:01.911Z,30.43
2016-05-15T06:04:01.789Z,30.43
2016-05-15T06:05:01.822Z,31.2
2016-05-15T06:06:01.872Z,30.71
2016-05-15T06:07:01.765Z,30.33
2016-05-15T06:08:01.986Z,30.52
2016-05-15T06:09:02.020Z,31.1
2016-05-15T06:10:02.085Z,30.71
2016-05-15T06:11:02.120Z,30.62
2016-05-15T06:12:02.169Z,30.43
2016-05-15T06:13:02.219Z,30.23
2016-05-15T06:14:02.111Z,30.62
2016-05-15T06:15:02.318Z,30.43
2016-05-15T06:16:02.383Z,30.43
2016-05-15T06:17:02.432Z,30.23
2016-05-15T06:18:02.483Z,30.33
2016-05-15T06:19:02.547Z,30.33
2016-05-15T06:20:02.581Z,30.33
2016-05-15T06:21:02.631Z,30.71
2016-05-15T06:22:02.696Z,30.71
2016-05-15T06:23:02.745Z,30.23
2016-05-15T06:24:02.795Z,30.71
2016-05-15T06:25:02.845Z,30.71
2016-05-15T06:26:02.894Z,30.43
2016-05-15T06:27:02.928Z,31.1
2016-05-15T06:28:02.993Z,30.52
2016-05-15T06:29:03.043Z,30.23
2016-05-15T06:30:02.936Z,30.33
2016-05-15T06:31:03.142Z,30.23
2016-05-15T06:32:03.192Z,30.33
2016-05-15T06:33:03.257Z,29.94
2016-05-15T06:34:03.306Z,30.62
2016-05-15T06:35:03.340Z,30.43
2016-05-15T06:36:03.390Z,30.43
2016-05-15T06:37:03.455Z,30.79
2016-05-15T06:38:03.333Z,30.43
2016-05-15T06:39:03.413Z,30.23
2016-05-15T06:40:03.604Z,30.33
2016-05-15T06:41:03.653Z,30.81
2016-05-15T06:42:03.546Z,30.81
2016-05-15T06:43:03.753Z,30.62
2016-05-15T06:44:03.817Z,30.43
2016-05-15T06:45:03.867Z,30.22
2016-05-15T06:46:03.901Z,30.04
2016-05-15T06:47:03.951Z,30.23
2016-05-15T06:48:03.860Z,30.23
2016-05-15T06:49:04.080Z,31
2016-05-15T06:50:04.116Z,30.33
2016-05-15T06:51:04.165Z,31
2016-05-15T06:52:04.198Z,30.43
2016-05-15T06:53:04.263Z,31.29
2016-05-15T06:54:04.313Z,31.1
2016-05-15T06:55:04.363Z,31.87
2016-05-15T06:56:04.412Z,30.71
2016-05-15T06:57:04.462Z,30.62
2016-05-15T06:58:04.527Z,31.1
2016-05-15T06:59:04.561Z,31.48
2016-05-15T07:00:04.610Z,31.1
2016-05-15T07:01:04.660Z,30.9
2016-05-15T07:02:04.726Z,31.48
2016-05-15T07:03:04.775Z,31
2016-05-15T07:04:04.934Z,31
2016-05-15T07:05:04.718Z,30.71
2016-05-15T07:06:04.923Z,30.43
2016-05-15T07:07:04.972Z,30.52
2016-05-15T07:08:05.023Z,30.71
2016-05-15T07:09:05.072Z,30.14
2016-05-15T07:10:04.981Z,30.71
2016-05-15T07:11:05.186Z,31.29
2016-05-15T07:12:05.237Z,31.38
2016-05-15T07:13:05.286Z,30.71
2016-05-15T07:14:05.335Z,30.23
2016-05-15T07:15:05.370Z,30.62
2016-05-15T07:16:05.435Z,30.62
2016-05-15T07:17:05.485Z,30.33
2016-05-15T07:18:05.534Z,30.04
2016-05-15T07:19:05.771Z,30.33
2016-05-15T07:20:05.633Z,31
2016-05-15T07:21:05.682Z,30.52
2016-05-15T07:22:05.748Z,30.52
2016-05-15T07:23:05.782Z,29.85
2016-05-15T07:24:05.847Z,30.43
2016-05-15T07:25:05.896Z,30.43
2016-05-15T07:26:05.946Z,30.04
2016-05-15T07:27:05.980Z,30.52
2016-05-15T07:28:06.045Z,30.9
2016-05-15T07:29:06.095Z,31
2016-05-15T07:30:05.988Z,30.81
2016-05-15T07:31:06.194Z,30.9
2016-05-15T07:32:06.243Z,31.29
2016-05-15T07:33:06.309Z,31.1
2016-05-15T07:34:06.202Z,30.62
2016-05-15T07:35:06.595Z,30.9
2016-05-15T07:36:06.456Z,31.38
2016-05-15T07:37:06.507Z,30.43
2016-05-15T07:38:06.556Z,30.62
2016-05-15T07:39:06.642Z,30.71
2016-05-15T07:40:06.703Z,30.43
2016-05-15T07:41:06.828Z,31.2
2016-05-15T07:42:06.905Z,31.38
2016-05-15T07:43:06.998Z,31.1
2016-05-15T07:44:07.078Z,31.87
2016-05-15T07:45:07.159Z,32.15
2016-05-15T07:46:07.225Z,32.34
2016-05-15T07:47:07.274Z,32.15
2016-05-15T07:48:07.370Z,31.48
2016-05-15T07:49:07.415Z,30.81
2016-05-15T07:50:07.455Z,31.38
2016-05-15T07:51:07.510Z,32.25
2016-05-15T07:52:07.580Z,31.58
2016-05-15T07:53:21.089Z,31.48
2016-05-15T07:54:07.689Z,31.29
2016-05-15T07:55:07.740Z,31.38
2016-05-15T07:56:07.807Z,31.77
2016-05-15T07:57:07.842Z,31.38
2016-05-15T07:58:07.910Z,31
2016-05-15T07:59:07.961Z,30.81
2016-05-15T08:00:08.012Z,31
2016-05-15T08:01:08.062Z,30.71
2016-05-15T08:02:08.111Z,30.23
2016-05-15T08:03:08.162Z,30.62
2016-05-15T08:04:08.212Z,30.52
2016-05-15T08:05:08.262Z,31.29
2016-05-15T08:06:08.312Z,30.23
2016-05-15T08:07:08.363Z,30.62
2016-05-15T08:08:08.413Z,31
2016-05-15T08:09:08.477Z,31.77
2016-05-15T08:10:08.512Z,31.48
2016-05-15T08:11:08.421Z,30.81
2016-05-15T08:12:08.610Z,31.58
2016-05-15T08:13:08.660Z,30.9
2016-05-15T08:14:08.726Z,31
2016-05-15T08:15:08.775Z,31
2016-05-15T08:16:08.809Z,31.1
2016-05-15T08:17:08.874Z,30.71
2016-05-15T08:18:08.924Z,30.62
2016-05-15T08:19:09.129Z,30.71
2016-05-15T08:20:09.038Z,31.38
2016-05-15T08:21:09.088Z,31.77
2016-05-15T08:22:09.123Z,31.29
2016-05-15T08:23:09.187Z,31.29
2016-05-15T08:24:09.237Z,31.67
2016-05-15T08:25:09.287Z,30.81
2016-05-15T08:26:09.336Z,31.1
2016-05-15T08:27:09.386Z,31.1
2016-05-15T08:28:09.434Z,30.81
2016-05-15T08:29:09.329Z,31.29
2016-05-15T08:30:09.534Z,30.23
2016-05-15T08:31:09.583Z,30.43
2016-05-15T08:32:09.633Z,30.23
2016-05-15T08:33:09.683Z,30.81
2016-05-15T08:34:09.576Z,30.14
2016-05-15T08:35:10.532Z,29.94
2016-05-15T08:36:09.692Z,30.14
2016-05-15T08:37:09.897Z,30.04
2016-05-15T08:38:09.946Z,31
2016-05-15T08:39:10.012Z,30.62
2016-05-15T08:40:10.046Z,31.1
2016-05-15T08:41:09.938Z,31.1
2016-05-15T08:42:10.160Z,31.29
2016-05-15T08:43:10.038Z,31.29
2016-05-15T08:44:10.260Z,31
2016-05-15T08:45:10.293Z,30.52
2016-05-15T08:46:10.343Z,31
2016-05-15T08:47:10.393Z,30.43
2016-05-15T08:48:10.442Z,30.23
2016-05-15T08:49:10.523Z,30.43
2016-05-15T08:50:10.541Z,30.52
2016-05-15T08:51:10.607Z,30.14
2016-05-15T08:52:10.499Z,30.04
2016-05-15T08:53:10.706Z,30.62
2016-05-15T08:54:10.770Z,30.43
2016-05-15T08:55:10.820Z,29.94
2016-05-15T08:56:10.854Z,30.52
2016-05-15T08:57:10.920Z,30.62
2016-05-15T08:58:10.969Z,30.9
2016-05-15T08:59:11.003Z,30.43
2016-05-15T09:00:11.068Z,30.14
2016-05-15T09:01:11.117Z,30.43
2016-05-15T09:02:11.151Z,30.52
2016-05-15T09:03:11.217Z,31.1
2016-05-15T09:04:11.266Z,31
2016-05-15T09:05:11.176Z,30.62
2016-05-15T09:06:11.381Z,29.85
2016-05-15T09:07:11.414Z,30.33
2016-05-15T09:08:11.464Z,30.14
2016-05-15T09:09:11.529Z,30.23
2016-05-15T09:10:11.407Z,30.14
2016-05-15T09:11:11.614Z,30.43
2016-05-15T09:12:11.678Z,30.14
2016-05-15T09:13:11.743Z,29.37
2016-05-15T09:14:11.778Z,29.85
2016-05-15T09:15:11.827Z,29.47
2016-05-15T09:16:11.892Z,29.66
2016-05-15T09:17:11.941Z,30.14
2016-05-15T09:18:11.992Z,30.33
2016-05-15T09:19:12.041Z,29.94
2016-05-15T09:20:12.090Z,30.43
2016-05-15T09:21:12.124Z,30.81
2016-05-15T09:22:12.189Z,31.29
2016-05-15T09:23:12.255Z,30.33
2016-05-15T09:24:12.304Z,30.23
2016-05-15T09:25:12.338Z,30.43
2016-05-15T09:26:12.388Z,30.43
2016-05-15T09:27:12.422Z,30.62
2016-05-15T09:28:12.487Z,30.33
2016-05-15T09:29:12.381Z,30.52
2016-05-15T09:30:12.601Z,29.94
2016-05-15T09:31:12.636Z,30.23
2016-05-15T09:32:12.701Z,29.37
2016-05-15T09:33:12.750Z,30.33
2016-05-15T09:34:12.628Z,30.33
2016-05-15T09:35:12.725Z,30.23
2016-05-15T09:36:12.899Z,29.85
2016-05-15T09:37:12.792Z,30.43
2016-05-15T09:38:12.827Z,29.47
2016-05-15T09:39:13.048Z,29.17
2016-05-15T09:40:13.097Z,28.7
2016-05-15T09:41:13.178Z,28.79
2016-05-15T09:42:13.197Z,29.27
2016-05-15T09:43:13.261Z,30.14
2016-05-15T09:44:13.311Z,30.04
2016-05-15T09:45:13.345Z,29.37
2016-05-15T09:46:13.411Z,29.17
2016-05-15T09:47:13.460Z,30.43
2016-05-15T09:48:13.494Z,29.66
2016-05-15T09:49:13.559Z,29.47
2016-05-15T09:50:13.609Z,28.99
2016-05-15T09:51:13.658Z,29.37
2016-05-15T09:52:13.708Z,29.37
2016-05-15T09:53:13.757Z,29.37
2016-05-15T09:54:13.666Z,29.17
2016-05-15T09:55:13.856Z,29.17
2016-05-15T09:56:13.906Z,29.47
2016-05-15T09:57:13.956Z,29.85
2016-05-15T09:58:14.005Z,29.75
2016-05-15T09:59:14.071Z,30.62
2016-05-15T10:00:13.948Z,29.85
2016-05-15T10:01:14.170Z,29.94
2016-05-15T10:02:14.219Z,29.85
2016-05-15T10:03:14.269Z,30.33
2016-05-15T10:04:14.334Z,30.32
2016-05-15T10:05:14.367Z,29.93
2016-05-15T10:06:14.433Z,30.32
2016-05-15T10:07:14.483Z,30.02
2016-05-15T10:08:14.533Z,30.22
2016-05-15T10:09:14.581Z,30.6
2016-05-15T10:10:14.630Z,30.6
2016-05-15T10:11:14.665Z,30.32
2016-05-15T10:12:14.731Z,30.89
2016-05-15T10:13:14.780Z,30.99
2016-05-15T10:14:14.813Z,31.08
2016-05-15T10:15:14.864Z,31.37
2016-05-15T10:16:14.929Z,31
2016-05-15T10:17:14.822Z,31
2016-05-15T10:18:15.027Z,31
2016-05-15T10:19:15.094Z,31.38
2016-05-15T10:20:15.174Z,32.15
2016-05-15T10:21:15.193Z,31.38
2016-05-15T10:22:15.226Z,31.38
2016-05-15T10:23:15.275Z,31.29
2016-05-15T10:24:15.341Z,31.58
2016-05-15T10:25:15.390Z,31.87
2016-05-15T10:26:15.424Z,31.96
2016-05-15T10:27:15.489Z,30.99
2016-05-15T10:28:15.570Z,31.29
2016-05-15T10:29:15.620Z,31.29
2016-05-15T10:30:15.654Z,31.66
2016-05-15T10:31:15.812Z,31.56
2016-05-15T10:32:15.753Z,31.38
2016-05-15T10:33:15.787Z,31.87
2016-05-15T10:34:15.853Z,31
2016-05-15T10:35:15.808Z,31.67
2016-05-15T10:36:15.935Z,31.96
2016-05-15T10:37:16.001Z,31.37
2016-05-15T10:38:16.051Z,31.87
2016-05-15T10:39:16.100Z,31.29
2016-05-15T10:40:16.149Z,31.48
2016-05-15T10:41:16.043Z,31.58
2016-05-15T10:42:16.249Z,32.54
2016-05-15T10:43:16.298Z,31.58
2016-05-15T10:44:16.363Z,31.1
2016-05-15T10:45:16.397Z,31.1
2016-05-15T10:46:16.447Z,31
2016-05-15T10:47:16.497Z,31
2016-05-15T10:48:16.546Z,31.1
2016-05-15T10:49:16.814Z,31.1
2016-05-15T10:50:16.691Z,31.77
2016-05-15T10:51:16.711Z,31.2
2016-05-15T10:52:16.776Z,31.87
2016-05-15T10:53:16.809Z,31.38
2016-05-15T10:54:16.859Z,31.87
2016-05-15T10:55:16.923Z,31.38
2016-05-15T10:56:16.974Z,32.25
2016-05-15T10:57:17.007Z,32.15
2016-05-15T10:58:17.073Z,31.48
2016-05-15T10:59:17.106Z,30.9
2016-05-15T11:00:17.173Z,31.1
2016-05-15T11:01:17.065Z,31.2
2016-05-15T11:02:17.271Z,31.77
2016-05-15T11:03:17.305Z,31
2016-05-15T11:04:17.434Z,31.1
2016-05-15T11:05:17.419Z,31.38
2016-05-15T11:06:17.470Z,31.87
2016-05-15T11:07:17.534Z,32.14
2016-05-15T11:08:17.584Z,31.29
2016-05-15T11:09:17.633Z,31.38
2016-05-15T11:10:17.528Z,31.27
2016-05-15T11:11:17.561Z,31.75
2016-05-15T11:12:17.767Z,31.75
2016-05-15T11:13:17.832Z,31.95
2016-05-15T11:14:17.881Z,31.95
2016-05-15T11:15:17.774Z,31.66
2016-05-15T11:16:17.981Z,32.04
2016-05-15T11:17:18.030Z,32.23
2016-05-15T11:18:18.080Z,32.14
2016-05-15T11:19:18.457Z,31.95
2016-05-15T11:20:18.038Z,32.33
2016-05-15T11:21:18.229Z,32.52
2016-05-15T11:22:18.277Z,32.52
2016-05-15T11:23:18.343Z,32.9
2016-05-15T11:24:19.612Z,32.81
2016-05-15T11:25:18.442Z,32.81
2016-05-15T11:26:18.476Z,32.71
2016-05-15T11:27:18.526Z,32.52
2016-05-15T11:28:18.590Z,32.81
2016-05-15T11:29:18.640Z,32.33
2016-05-15T11:30:18.674Z,32.81
2016-05-15T11:31:18.584Z,32.71
2016-05-15T11:32:18.804Z,32.52
2016-05-15T11:33:18.682Z,32.81
2016-05-15T11:34:18.748Z,32.62
2016-05-15T11:35:19.735Z,32.71
2016-05-15T11:36:18.987Z,33
2016-05-15T11:37:19.053Z,32.71
2016-05-15T11:38:19.086Z,32.62
2016-05-15T11:39:19.152Z,32.81
2016-05-15T11:40:19.201Z,32.81
2016-05-15T11:41:19.251Z,33
2016-05-15T11:42:19.300Z,32.9
2016-05-15T11:43:19.491Z,32.81
2016-05-15T11:44:19.399Z,32.52
2016-05-15T11:45:19.450Z,32.23
2016-05-15T11:46:19.514Z,33
2016-05-15T11:47:19.549Z,32.81
2016-05-15T11:48:19.597Z,32.71
2016-05-15T11:49:19.772Z,32.52
2016-05-15T11:50:19.696Z,32.23
2016-05-15T11:51:19.747Z,32.81
2016-05-15T11:52:19.812Z,33
2016-05-15T11:53:19.861Z,32.42
2016-05-15T11:54:19.754Z,32.81
2016-05-15T11:55:19.960Z,32.52
2016-05-15T11:56:20.025Z,32.52
2016-05-15T11:57:20.076Z,32.71
2016-05-15T11:58:20.110Z,33
2016-05-15T11:59:20.174Z,32.62
2016-05-15T12:00:20.223Z,33.29
2016-05-15T12:01:20.257Z,33
2016-05-15T12:02:20.323Z,32.81
2016-05-15T12:03:20.373Z,32.81
2016-05-15T12:04:20.438Z,33.19
2016-05-15T12:05:20.472Z,32.52
2016-05-15T12:06:20.521Z,32.71
2016-05-15T12:07:20.570Z,32.52
2016-05-15T12:08:20.620Z,32.23
2016-05-15T12:09:20.670Z,32.81
2016-05-15T12:10:20.720Z,32.81
2016-05-15T12:11:20.784Z,32.62
2016-05-15T12:12:20.819Z,32.52
2016-05-15T12:13:20.869Z,32.42
2016-05-15T12:14:20.934Z,32.52
2016-05-15T12:15:20.827Z,32.71
2016-05-15T12:16:21.048Z,33
2016-05-15T12:17:21.082Z,32.52
2016-05-15T12:18:21.132Z,32.23
2016-05-15T12:19:21.024Z,32.42
2016-05-15T12:20:21.074Z,32.62
2016-05-15T12:21:21.281Z,32.52
2016-05-15T12:22:21.346Z,32.33
2016-05-15T12:23:21.380Z,32.33
2016-05-15T12:24:21.429Z,32.23
2016-05-15T12:25:21.322Z,32.52
2016-05-15T12:26:21.371Z,32.33
2016-05-15T12:27:21.594Z,32.23
2016-05-15T12:28:21.627Z,32.81
2016-05-15T12:29:21.677Z,32.42
2016-05-15T12:30:21.742Z,33
2016-05-15T12:31:21.776Z,33.09
2016-05-15T12:32:21.826Z,32.71
2016-05-15T12:33:21.891Z,31.95
2016-05-15T12:34:22.143Z,32.81
2016-05-15T12:35:21.990Z,32.33
2016-05-15T12:36:22.055Z,32.33
2016-05-15T12:37:22.089Z,32.52
2016-05-15T12:38:21.998Z,33.09
2016-05-15T12:39:22.204Z,32.52
2016-05-15T12:40:22.082Z,32.33
2016-05-15T12:41:22.303Z,32.9
2016-05-15T12:42:22.353Z,32.71
2016-05-15T12:43:22.386Z,32.52
2016-05-15T12:44:22.436Z,32.33
2016-05-15T12:45:22.500Z,32.52
2016-05-15T12:46:22.536Z,32.71
2016-05-15T12:47:22.600Z,32.52
2016-05-15T12:48:22.650Z,33
2016-05-15T12:49:22.700Z,32.52
2016-05-15T12:50:22.811Z,32.62
2016-05-15T12:51:22.814Z,32.42
2016-05-15T12:52:22.848Z,32.23
2016-05-15T12:53:22.897Z,32.52
2016-05-15T12:54:22.807Z,32.33
2016-05-15T12:55:22.997Z,32.23
2016-05-15T12:56:23.046Z,32.71
2016-05-15T12:57:23.112Z,32.42
2016-05-15T12:58:23.161Z,33.09
2016-05-15T12:59:23.211Z,33